Time;durP1;ratioP1;P1;durP2;ratioP2;P2;SDS_P1;SDS_P2;PMS_P1;PMS_P2;Temp;Humidity;BMP_temperature;BMP_pressure;BME280_temperature;BME280_humidity;BME280_pressure;Samples;Min_cycle;Max_cycle;Signal;HPM_P1;HPM_P2
2024/03/04 00:00:52;;;;;;;27.98;16.58;;;;;;;8.65;100.00;99110.06;4966617;28;20125;-70
2024/03/04 00:03:23;;;;;;;24.08;16.05;;;;;;;8.67;100.00;99120.50;4961005;28;20427;-68
2024/03/04 00:05:51;;;;;;;26.30;16.73;;;;;;;8.64;100.00;99116.28;4960269;28;20074;-66
2024/03/04 00:08:19;;;;;;;26.27;16.15;;;;;;;8.67;100.00;99118.69;4967916;28;20106;-68
2024/03/04 00:10:49;;;;;;;25.52;16.08;;;;;;;8.70;100.00;99131.72;4983374;28;20045;-69
2024/03/04 00:13:20;;;;;;;26.80;16.85;;;;;;;8.74;100.00;99133.25;4963998;28;20042;-68
2024/03/04 00:15:52;;;;;;;22.98;14.80;;;;;;;8.78;100.00;99145.31;4985485;28;20077;-69
2024/03/04 00:18:20;;;;;;;22.63;15.35;;;;;;;8.76;100.00;99141.94;4970497;28;20113;-70
2024/03/04 00:20:48;;;;;;;22.83;14.95;;;;;;;8.74;100.00;99140.31;4966921;28;20072;-68
2024/03/04 00:23:16;;;;;;;24.30;14.82;;;;;;;8.70;100.00;99147.56;4949763;28;20058;-70
2024/03/04 00:25:45;;;;;;;23.02;15.02;;;;;;;8.65;100.00;99148.78;4976601;28;20053;-70
2024/03/04 00:28:14;;;;;;;24.13;15.13;;;;;;;8.62;100.00;99159.50;4952977;28;20043;-68
2024/03/04 00:30:43;;;;;;;22.58;14.93;;;;;;;8.52;100.00;99156.53;4984141;28;20134;-70
2024/03/04 00:33:13;;;;;;;25.10;15.68;;;;;;;8.60;100.00;99171.94;4973470;28;20058;-69
2024/03/04 00:35:41;;;;;;;25.80;17.05;;;;;;;8.61;100.00;99177.13;4946032;28;20118;-70
2024/03/04 00:38:11;;;;;;;30.13;16.70;;;;;;;8.60;100.00;99180.72;4975676;28;20057;-68
2024/03/04 00:40:38;;;;;;;25.02;15.93;;;;;;;8.59;100.00;99176.38;4980140;28;20055;-70
2024/03/04 00:43:06;;;;;;;24.80;15.60;;;;;;;8.60;100.00;99179.88;4982450;28;20053;-68
2024/03/04 00:45:36;;;;;;;24.73;15.98;;;;;;;8.58;100.00;99179.94;4998457;28;20054;-68
2024/03/04 00:48:05;;;;;;;25.35;16.48;;;;;;;8.59;100.00;99181.66;4990197;28;20042;-68
2024/03/04 00:50:32;;;;;;;25.60;16.05;;;;;;;8.53;100.00;99174.06;4987941;28;20050;-67
2024/03/04 00:53:02;;;;;;;24.83;15.45;;;;;;;8.55;100.00;99188.03;4984231;28;20559;-69
2024/03/04 00:55:30;;;;;;;25.73;15.27;;;;;;;8.45;100.00;99173.69;4977050;28;20051;-69
2024/03/04 00:57:57;;;;;;;26.02;16.65;;;;;;;8.47;100.00;99176.25;4968234;28;20586;-69
2024/03/04 01:00:25;;;;;;;23.77;15.52;;;;;;;8.49;100.00;99185.78;4965786;28;20429;-70
2024/03/04 01:02:56;;;;;;;26.08;16.20;;;;;;;8.42;100.00;99185.25;4972146;28;20070;-67
2024/03/04 01:05:25;;;;;;;25.15;15.98;;;;;;;8.47;100.00;99202.63;4978918;28;21768;-69
2024/03/04 01:07:53;;;;;;;23.55;15.18;;;;;;;8.44;100.00;99199.22;4976444;28;20517;-70
2024/03/04 01:10:21;;;;;;;25.42;16.50;;;;;;;8.41;100.00;99209.09;4941587;28;20129;-68
2024/03/04 01:12:49;;;;;;;25.58;16.15;;;;;;;8.29;100.00;99200.06;4969310;28;20097;-71
2024/03/04 01:15:17;;;;;;;26.98;16.83;;;;;;;8.16;100.00;99203.47;4961947;28;20055;-70
2024/03/04 01:17:47;;;;;;;27.45;17.08;;;;;;;8.16;100.00;99214.03;4983373;28;20097;-71
2024/03/04 01:20:20;;;;;;;28.88;17.13;;;;;;;8.04;100.00;99221.66;4984218;28;20134;-67
2024/03/04 01:22:49;;;;;;;28.77;17.48;;;;;;;7.92;100.00;99232.88;4994310;28;20050;-65
2024/03/04 01:25:18;;;;;;;27.75;17.85;;;;;;;7.81;100.00;99229.97;4996833;28;20046;-67
2024/03/04 01:27:46;;;;;;;27.20;16.38;;;;;;;7.74;100.00;99237.34;4988209;28;20110;-72
2024/03/04 01:30:14;;;;;;;25.45;16.58;;;;;;;7.56;100.00;99229.56;4985826;28;20047;-66
2024/03/04 01:32:44;;;;;;;29.90;18.05;;;;;;;7.51;100.00;99240.38;4986070;28;20133;-66
2024/03/04 01:35:13;;;;;;;27.35;17.92;;;;;;;7.46;100.00;99239.75;4993691;28;20134;-69
2024/03/04 01:37:42;;;;;;;31.55;18.50;;;;;;;7.42;100.00;99254.00;4988339;28;20055;-70
2024/03/04 01:40:13;;;;;;;31.40;18.73;;;;;;;7.32;100.00;99248.38;4969282;28;20054;-69
2024/03/04 01:42:44;;;;;;;29.02;18.45;;;;;;;7.32;100.00;99244.91;4984923;28;20042;-71
2024/03/04 01:45:18;;;;;;;29.08;18.20;;;;;;;7.30;100.00;99252.03;4979168;28;20138;-68
2024/03/04 01:47:48;;;;;;;33.70;18.90;;;;;;;7.27;100.00;99257.44;4970022;28;20050;-69
2024/03/04 01:50:23;;;;;;;33.50;19.38;;;;;;;7.24;100.00;99260.25;4962442;28;20122;-69
2024/03/04 01:52:53;;;;;;;28.98;18.40;;;;;;;7.16;100.00;99252.75;4948965;28;20049;-71
2024/03/04 01:55:23;;;;;;;;;;;;;;;7.22;100.00;99264.75;4956588;28;20048;-70
2024/03/04 01:57:54;;;;;;;30.20;17.40;;;;;;;7.17;100.00;99264.97;4959705;28;20342;-69
2024/03/04 02:00:25;;;;;;;28.88;17.75;;;;;;;7.13;100.00;99273.94;4945031;28;20138;-68
2024/03/04 02:02:56;;;;;;;30.58;18.05;;;;;;;7.10;100.00;99287.25;4947584;28;20558;-70
2024/03/04 02:05:25;;;;;;;29.77;17.30;;;;;;;7.08;100.00;99288.28;4936976;28;20125;-69
2024/03/04 02:07:54;;;;;;;27.90;17.80;;;;;;;7.05;100.00;99289.28;4976580;28;20069;-69
2024/03/04 02:10:22;;;;;;;32.10;18.92;;;;;;;6.99;100.00;99292.22;4966210;28;20126;-69
2024/03/04 02:12:51;;;;;;;30.90;18.92;;;;;;;6.98;100.00;99296.63;4965356;28;21120;-70
2024/03/04 02:15:21;;;;;;;32.72;18.90;;;;;;;6.97;100.00;99294.06;4945347;28;20051;-69
2024/03/04 02:17:50;;;;;;;30.73;18.52;;;;;;;6.85;100.00;99277.13;4969999;28;20054;-69
2024/03/04 02:20:19;;;;;;;32.67;19.40;;;;;;;6.98;100.00;99298.41;4932234;28;1511256;-70
2024/03/04 02:22:51;;;;;;;31.45;19.42;;;;;;;6.98;100.00;99298.41;4972131;28;20086;-69
2024/03/04 02:25:22;;;;;;;31.02;18.75;;;;;;;6.91;100.00;99300.50;4973413;28;20050;-68
2024/03/04 02:27:50;;;;;;;33.53;18.85;;;;;;;6.85;100.00;99295.53;4952487;28;20105;-68
2024/03/04 02:30:21;;;;;;;30.05;18.30;;;;;;;6.88;100.00;99299.81;4966295;28;20530;-68
2024/03/04 02:32:51;;;;;;;29.52;17.13;;;;;;;6.84;100.00;99308.78;4968312;28;20047;-67
2024/03/04 02:35:20;;;;;;;30.47;18.27;;;;;;;6.90;100.00;99319.00;4988750;28;20053;-67
2024/03/04 02:37:49;;;;;;;30.10;17.52;;;;;;;6.84;100.00;99317.50;5002207;28;20046;-68
2024/03/04 02:40:18;;;;;;;27.35;16.50;;;;;;;6.81;100.00;99324.69;4981993;28;20055;-68
2024/03/04 02:42:47;;;;;;;29.30;17.63;;;;;;;6.77;100.00;99323.16;4971811;28;20481;-70
2024/03/04 02:45:15;;;;;;;30.33;18.38;;;;;;;6.75;100.00;99325.88;4980097;28;20045;-69
2024/03/04 02:47:43;;;;;;;31.77;18.20;;;;;;;6.81;100.00;99340.50;4967810;28;20055;-68
2024/03/04 02:50:14;;;;;;;28.60;17.23;;;;;;;6.78;100.00;99336.22;4962523;28;20047;-68
2024/03/04 02:52:44;;;;;;;27.08;16.88;;;;;;;6.74;100.00;99329.44;4993162;28;20097;-69
2024/03/04 02:55:14;;;;;;;29.38;17.95;;;;;;;6.77;100.00;99329.25;4952642;28;20054;-69
2024/03/04 02:57:42;;;;;;;31.13;18.60;;;;;;;6.72;100.00;99330.41;4968360;28;20121;-70
2024/03/04 03:00:12;;;;;;;30.75;17.80;;;;;;;6.73;100.00;99340.88;4967373;28;20050;-71
2024/03/04 03:02:41;;;;;;;31.95;17.95;;;;;;;6.67;100.00;99344.63;4947052;28;20132;-68
2024/03/04 03:05:10;;;;;;;28.35;17.00;;;;;;;6.68;100.00;99354.25;4975770;28;20772;-70
2024/03/04 03:07:40;;;;;;;27.67;17.40;;;;;;;6.65;100.00;99351.75;4998180;28;20621;-66
2024/03/04 03:10:08;;;;;;;30.45;18.08;;;;;;;6.63;100.00;99348.34;5005695;28;20114;-68
2024/03/04 03:12:38;;;;;;;34.20;18.95;;;;;;;6.59;100.00;99352.06;4984942;28;20047;-67
2024/03/04 03:15:07;;;;;;;32.83;18.70;;;;;;;6.41;100.00;99320.50;4974511;28;20058;-72
2024/03/04 03:17:36;;;;;;;30.85;18.67;;;;;;;6.50;100.00;99360.38;4971315;28;20055;-69
2024/03/04 03:20:16;;;;;;;29.92;18.50;;;;;;;6.37;100.00;99348.72;4941596;28;20204;-68
2024/03/04 03:22:45;;;;;;;31.85;18.58;;;;;;;6.45;100.00;99356.25;4962462;28;20050;-68
2024/03/04 03:25:14;;;;;;;29.33;17.52;;;;;;;6.34;100.00;99344.44;4980087;28;20129;-67
2024/03/04 03:27:46;;;;;;;31.58;18.50;;;;;;;6.40;100.00;99345.94;4965951;28;20454;-70
2024/03/04 03:30:15;;;;;;;33.25;19.38;;;;;;;6.54;100.00;99361.94;4971624;28;20178;-70
2024/03/04 03:32:45;;;;;;;29.80;17.83;;;;;;;6.60;100.00;99356.41;4977072;28;20047;-68
2024/03/04 03:35:13;;;;;;;32.35;18.70;;;;;;;6.53;100.00;99356.75;4977374;28;20097;-67
2024/03/04 03:37:41;;;;;;;31.38;17.35;;;;;;;6.55;100.00;99361.00;4967638;28;20152;-68
2024/03/04 03:40:17;;;;;;;30.42;18.85;;;;;;;6.52;100.00;99360.28;4982085;28;20061;-66
2024/03/04 03:42:50;;;;;;;34.97;20.20;;;;;;;6.48;100.00;99364.84;4974073;28;20090;-68
2024/03/04 03:45:18;;;;;;;30.02;17.92;;;;;;;6.49;100.00;99370.94;4994376;28;20042;-70
2024/03/04 03:47:47;;;;;;;31.95;18.85;;;;;;;6.45;100.00;99354.50;4979710;28;20077;-71
2024/03/04 03:50:15;;;;;;;29.20;18.67;;;;;;;6.52;100.00;99379.56;4977955;28;20051;-70
2024/03/04 03:52:43;;;;;;;33.25;18.83;;;;;;;6.56;100.00;99386.38;4985693;28;20066;-68
2024/03/04 03:55:11;;;;;;;31.27;18.40;;;;;;;6.60;100.00;99390.59;4962000;28;20246;-70
2024/03/04 03:57:43;;;;;;;31.52;18.30;;;;;;;6.59;100.00;99394.16;4956255;28;20054;-68
2024/03/04 04:00:26;;;;;;;30.13;19.35;;;;;;;6.61;100.00;99401.97;4970018;28;20058;-68
2024/03/04 04:02:59;;;;;;;31.83;18.67;;;;;;;6.63;100.00;99405.34;4961374;28;20590;-68
2024/03/04 04:05:30;;;;;;;29.00;17.85;;;;;;;6.59;100.00;99398.56;4946864;28;20055;-68
2024/03/04 04:07:58;;;;;;;31.73;19.40;;;;;;;6.63;100.00;99403.56;4966256;28;20058;-67
2024/03/04 04:10:27;;;;;;;31.73;18.73;;;;;;;6.63;100.00;99403.56;4961965;28;20591;-69
2024/03/04 04:12:55;;;;;;;30.25;18.48;;;;;;;6.60;100.00;99398.47;4964544;28;20042;-70
2024/03/04 04:15:23;;;;;;;31.92;19.00;;;;;;;6.60;100.00;99398.47;4962774;28;20121;-68
2024/03/04 04:17:57;;;;;;;31.45;18.25;;;;;;;6.62;100.00;99407.13;4991582;28;20042;-68
2024/03/04 04:20:27;;;;;;;33.90;19.30;;;;;;;6.64;100.00;99410.53;4992010;28;20083;-70
2024/03/04 04:22:55;;;;;;;32.58;19.08;;;;;;;6.65;100.00;99417.50;4991533;28;20119;-70
2024/03/04 04:25:23;;;;;;;33.20;18.95;;;;;;;6.68;100.00;99413.91;4966910;28;20070;-68
2024/03/04 04:27:51;;;;;;;32.88;19.48;;;;;;;6.68;100.00;99421.78;4979758;28;20066;-69
2024/03/04 04:30:20;;;;;;;33.63;20.67;;;;;;;6.75;100.00;99428.47;4975204;28;20272;-68
2024/03/04 04:32:49;;;;;;;31.92;19.17;;;;;;;6.75;100.00;99433.75;4977761;28;20043;-69
2024/03/04 04:35:20;;;;;;;35.45;21.23;;;;;;;6.78;100.00;99436.22;4999993;28;20046;-67
2024/03/04 04:37:48;;;;;;;;;;;;;;;6.81;100.00;99437.84;4983121;28;20981;-70
2024/03/04 04:40:21;;;;;;;31.70;18.85;;;;;;;6.75;100.00;99435.53;4982143;28;19949;-68
2024/03/04 04:42:50;;;;;;;35.38;20.25;;;;;;;6.64;100.00;99412.31;4979237;28;20059;-68
2024/03/04 04:45:22;;;;;;;33.17;19.88;;;;;;;6.77;100.00;99437.13;4964178;28;20043;-70
2024/03/04 04:47:50;;;;;;;33.15;19.35;;;;;;;6.79;100.00;99444.94;4980562;28;20046;-69
2024/03/04 04:50:21;;;;;;;38.13;20.33;;;;;;;6.76;100.00;99442.50;4952646;28;20145;-68
2024/03/04 04:52:49;;;;;;;33.60;19.80;;;;;;;6.68;100.00;99438.41;4963162;28;20554;-70
2024/03/04 04:55:17;;;;;;;37.67;22.25;;;;;;;6.86;100.00;99459.53;4963420;28;20043;-67
2024/03/04 04:57:46;;;;;;;41.85;23.40;;;;;;;6.93;100.00;99463.59;4973567;28;20047;-68
2024/03/04 05:00:15;;;;;;;44.55;24.92;;;;;;;7.02;100.00;99465.81;4968693;28;20055;-68
2024/03/04 05:02:43;;;;;;;45.88;25.33;;;;;;;7.08;100.00;99473.41;4982547;28;20054;-69
2024/03/04 05:05:12;;;;;;;46.65;26.17;;;;;;;7.13;100.00;99462.66;4966204;28;20039;-70
2024/03/04 05:07:42;;;;;;;50.42;28.48;;;;;;;7.24;100.00;99471.72;4959952;28;20565;-68
2024/03/04 05:10:10;;;;;;;54.05;29.67;;;;;;;7.29;100.00;99471.53;4985596;28;20575;-68
2024/03/04 05:12:39;;;;;;;54.38;29.73;;;;;;;7.25;100.00;99460.28;4972248;28;20141;-70
2024/03/04 05:15:08;;;;;;;59.78;31.30;;;;;;;7.37;100.00;99472.03;4975018;28;20428;-72
2024/03/04 05:17:37;;;;;;;58.70;31.65;;;;;;;7.45;100.00;99496.19;4998100;28;20085;-67
2024/03/04 05:20:09;;;;;;;57.35;31.38;;;;;;;7.48;100.00;99485.50;5001764;28;20063;-67
2024/03/04 05:22:38;;;;;;;60.85;33.05;;;;;;;7.47;100.00;99489.06;4989769;28;20090;-67
2024/03/04 05:25:09;;;;;;;63.85;33.05;;;;;;;7.50;100.00;99496.84;4983836;28;20049;-71
2024/03/04 05:27:37;;;;;;;62.78;32.58;;;;;;;7.50;100.00;99506.50;4969031;28;20094;-70
2024/03/04 05:30:06;;;;;;;62.33;32.65;;;;;;;7.46;100.00;99502.31;4956634;28;20055;-67
2024/03/04 05:32:34;;;;;;;63.67;33.17;;;;;;;7.47;100.00;99509.28;4964424;28;20047;-67
2024/03/04 05:35:07;;;;;;;59.60;32.15;;;;;;;7.46;100.00;99516.34;4992001;28;20062;-67
2024/03/04 05:37:36;;;;;;;61.03;32.33;;;;;;;7.46;100.00;99518.13;4988437;28;20059;-68
2024/03/04 05:40:10;;;;;;;56.90;29.90;;;;;;;7.40;100.00;99514.84;4967148;28;20046;-70
2024/03/04 05:42:39;;;;;;;56.03;29.63;;;;;;;7.36;100.00;99529.09;4980454;28;20070;-70
2024/03/04 05:45:10;;;;;;;57.43;30.93;;;;;;;7.30;100.00;99532.03;4968826;28;20058;-71
2024/03/04 05:47:38;;;;;;;63.95;32.40;;;;;;;7.27;100.00;99533.94;4983140;28;20061;-69
2024/03/04 05:50:07;;;;;;;61.63;32.10;;;;;;;7.23;100.00;99533.25;4971639;28;20057;-68
2024/03/04 05:52:36;;;;;;;62.17;34.17;;;;;;;7.23;100.00;99543.78;4968712;28;20058;-70
2024/03/04 05:55:06;;;;;;;69.53;34.67;;;;;;;7.20;100.00;99528.13;4986245;28;20042;-69
2024/03/04 05:57:37;;;;;;;67.18;35.22;;;;;;;7.27;100.00;99539.19;4965082;28;20122;-69
2024/03/04 06:00:12;;;;;;;71.82;35.33;;;;;;;7.21;100.00;99542.16;4985791;28;20067;-67
2024/03/04 06:02:40;;;;;;;65.35;34.17;;;;;;;7.16;100.00;99542.34;4986577;28;20050;-67
2024/03/04 06:05:11;;;;;;;68.82;35.85;;;;;;;7.13;100.00;99547.75;4987702;28;20049;-68
2024/03/04 06:07:40;;;;;;;67.68;34.67;;;;;;;7.14;100.00;99565.25;4998288;28;20439;-66
2024/03/04 06:10:08;;;;;;;64.10;33.53;;;;;;;7.11;100.00;99569.81;5000633;28;20053;-70
2024/03/04 06:12:40;;;;;;;67.75;34.25;;;;;;;7.01;100.00;99558.84;4996797;28;20074;-70
2024/03/04 06:15:11;;;;;;;73.22;36.40;;;;;;;7.03;100.00;99571.03;4980982;28;20043;-69
2024/03/04 06:17:43;;;;;;;69.50;35.03;;;;;;;7.00;100.00;99578.19;4972324;28;20149;-70
2024/03/04 06:20:11;;;;;;;68.07;34.03;;;;;;;7.02;100.00;99576.34;4988609;28;20039;-68
2024/03/04 06:22:40;;;;;;;72.25;35.38;;;;;;;7.04;100.00;99590.31;4990489;28;20131;-68
2024/03/04 06:25:09;;;;;;;71.88;34.75;;;;;;;7.01;100.00;99585.16;4989104;28;20046;-67
2024/03/04 06:27:37;;;;;;;68.13;34.78;;;;;;;7.12;100.00;99600.47;4997914;28;20043;-68
2024/03/04 06:30:12;;;;;;;68.25;36.28;;;;;;;7.07;100.00;99590.19;4982235;28;20771;-67
2024/03/04 06:32:41;;;;;;;67.00;33.30;;;;;;;7.25;100.00;99607.75;5000598;28;20074;-68
2024/03/04 06:35:10;;;;;;;70.18;35.67;;;;;;;7.30;100.00;99605.75;4981464;28;20138;-68
2024/03/04 06:37:40;;;;;;;70.43;35.78;;;;;;;7.32;100.00;99603.06;4957986;28;20047;-68
2024/03/04 06:40:10;;;;;;;65.90;35.25;;;;;;;7.33;100.00;99610.88;4955883;28;20158;-68
2024/03/04 06:42:39;;;;;;;68.95;36.17;;;;;;;7.36;100.00;99615.16;4984039;28;20042;-71
2024/03/04 06:45:10;;;;;;;63.20;32.92;;;;;;;7.42;100.00;99629.81;4961408;28;20039;-70
2024/03/04 06:47:38;;;;;;;65.75;34.42;;;;;;;7.44;100.00;99625.34;4962199;28;20070;-69
2024/03/04 06:50:08;;;;;;;66.03;34.58;;;;;;;7.50;100.00;99632.97;4970055;28;20066;-66
2024/03/04 06:52:36;;;;;;;63.55;33.80;;;;;;;7.53;100.00;99635.47;4957701;28;20054;-70
2024/03/04 06:55:06;;;;;;;66.13;32.53;;;;;;;7.53;100.00;99643.38;4983225;28;20046;-68
2024/03/04 06:57:34;;;;;;;61.88;32.88;;;;;;;7.47;100.00;99651.53;4959726;28;20046;-69
2024/03/04 07:00:04;;;;;;;61.55;32.05;;;;;;;7.42;100.00;99661.41;4951364;28;20070;-70
2024/03/04 07:02:34;;;;;;;63.40;30.83;;;;;;;7.30;100.00;99661.06;4981954;28;20051;-69
2024/03/04 07:05:02;;;;;;;59.42;31.40;;;;;;;7.17;100.00;99667.81;4966805;28;20157;-70
2024/03/04 07:07:31;;;;;;;55.92;30.60;;;;;;;7.12;100.00;99677.69;4963037;28;20050;-71
2024/03/04 07:10:00;;;;;;;59.95;32.42;;;;;;;7.07;100.00;99671.78;4964778;28;21150;-71
2024/03/04 07:12:31;;;;;;;62.20;32.33;;;;;;;7.04;100.00;99680.66;4946631;28;20081;-71
2024/03/04 07:14:59;;;;;;;56.67;30.67;;;;;;;6.97;100.00;99673.09;4963340;28;20050;-69
2024/03/04 07:17:28;;;;;;;63.83;34.13;;;;;;;6.99;100.00;99687.91;4954448;28;20072;-71
2024/03/04 07:19:58;;;;;;;61.40;32.78;;;;;;;6.96;100.00;99677.50;4964889;28;20051;-69
2024/03/04 07:22:28;;;;;;;66.80;33.20;;;;;;;7.09;100.00;99693.59;4961239;28;20062;-69
2024/03/04 07:24:56;;;;;;;68.47;33.75;;;;;;;7.10;100.00;99690.06;4966917;28;21683;-70
2024/03/04 07:27:24;;;;;;;67.10;34.25;;;;;;;7.16;100.00;99692.44;4973360;28;20057;-69
2024/03/04 07:29:54;;;;;;;64.90;32.33;;;;;;;7.23;100.00;99696.50;4965792;28;20047;-69
2024/03/04 07:32:29;;;;;;;64.95;32.53;;;;;;;7.28;100.00;99698.91;4965959;28;20047;-71
2024/03/04 07:34:59;;;;;;;66.95;33.63;;;;;;;7.31;100.00;99690.88;4960084;28;20046;-71
2024/03/04 07:37:27;;;;;;;58.58;31.20;;;;;;;7.38;100.00;99692.34;4960660;28;20050;-71
2024/03/04 07:39:55;;;;;;;71.93;34.90;;;;;;;7.49;100.00;99697.97;4948390;28;20053;-71
2024/03/04 07:42:24;;;;;;;71.05;35.47;;;;;;;7.66;100.00;99698.06;4978432;28;20059;-71
2024/03/04 07:44:52;;;;;;;76.45;38.22;;;;;;;7.72;100.00;99681.06;5002970;28;20149;-66
2024/03/04 07:47:20;;;;;;;72.30;36.95;;;;;;;7.99;100.00;99692.97;4995999;28;20294;-67
2024/03/04 07:49:48;;;;;;;72.35;36.63;;;;;;;8.13;100.00;99697.59;4978140;28;20093;-72
2024/03/04 07:52:19;;;;;;;70.10;36.53;;;;;;;8.24;100.00;99686.53;4974332;28;20157;-70
2024/03/04 07:54:47;;;;;;;68.20;35.45;;;;;;;8.39;100.00;99709.53;4979351;28;20050;-68
2024/03/04 07:57:16;;;;;;;74.68;35.45;;;;;;;8.49;100.00;99705.53;4996812;28;20039;-69
2024/03/04 07:59:51;;;;;;;70.63;36.22;;;;;;;8.56;100.00;99709.56;5003987;28;20039;-68
2024/03/04 08:02:19;;;;;;;70.22;35.00;;;;;;;8.56;100.00;99712.22;4972082;28;20062;-73
2024/03/04 08:04:48;;;;;;;76.20;37.22;;;;;;;8.63;100.00;99723.31;4965760;28;20039;-74
2024/03/04 08:07:19;;;;;;;70.85;35.78;;;;;;;8.62;100.00;99717.19;4965784;28;20053;-73
2024/03/04 08:09:49;;;;;;;66.63;34.05;;;;;;;8.62;100.00;99705.78;4954701;28;20102;-73
2024/03/04 08:12:17;;;;;;;67.00;35.80;;;;;;;8.70;100.00;99722.94;4971167;28;20074;-73
2024/03/04 08:14:46;;;;;;;63.92;34.67;;;;;;;8.75;100.00;99720.06;4974601;28;20083;-73
2024/03/04 08:17:17;;;;;;;64.45;33.50;;;;;;;8.81;100.00;99717.13;4978731;28;20531;-73
2024/03/04 08:19:46;;;;;;;70.07;35.55;;;;;;;8.84;100.00;99710.81;4978969;28;20065;-73
2024/03/04 08:22:20;;;;;;;73.40;36.33;;;;;;;8.95;100.00;99725.22;4973080;28;20078;-72
2024/03/04 08:24:48;;;;;;;72.38;34.22;;;;;;;8.94;100.00;99720.84;4980972;28;20053;-74
2024/03/04 08:27:19;;;;;;;65.25;34.05;;;;;;;9.01;100.00;99721.38;4996377;28;20097;-71
2024/03/04 08:29:48;;;;;;;;;;;;;;;9.10;100.00;99728.84;4983569;28;20083;-72
2024/03/04 08:32:16;;;;;;;59.03;29.88;;;;;;;9.13;100.00;99728.66;4964898;28;19933;-71
2024/03/04 08:34:47;;;;;;;59.15;29.88;;;;;;;9.13;100.00;99729.53;4980654;28;20062;-73
2024/03/04 08:37:15;;;;;;;54.80;28.40;;;;;;;9.18;100.00;99734.56;4962759;28;20054;-73
2024/03/04 08:39:47;;;;;;;52.55;26.73;;;;;;;9.20;100.00;99735.34;4946470;28;20074;-72
2024/03/04 08:42:16;;;;;;;52.80;26.95;;;;;;;9.24;100.00;99729.00;4967919;28;20054;-69
2024/03/04 08:44:47;;;;;;;48.88;26.20;;;;;;;9.28;100.00;99738.47;4969429;28;20049;-71
2024/03/04 08:47:17;;;;;;;51.13;26.58;;;;;;;9.31;100.00;99743.56;4966695;28;20072;-72
2024/03/04 08:49:48;;;;;;;47.15;25.30;;;;;;;9.34;100.00;99738.13;4973278;28;20057;-69
2024/03/04 08:52:16;;;;;;;45.92;24.30;;;;;;;9.38;100.00;99746.75;4984812;28;20146;-72
2024/03/04 08:54:46;;;;;;;45.08;24.13;;;;;;;9.40;100.00;99743.09;4973010;28;20047;-73
2024/03/04 08:57:16;;;;;;;42.72;23.63;;;;;;;9.48;100.00;99747.97;4987061;28;20058;-72
2024/03/04 08:59:47;;;;;;;42.55;23.08;;;;;;;9.47;100.00;99741.84;4970457;28;20046;-73
2024/03/04 09:02:15;;;;;;;45.38;23.05;;;;;;;9.55;100.00;99756.44;4968442;28;20786;-71
2024/03/04 09:04:47;;;;;;;42.50;23.03;;;;;;;9.47;100.00;99755.03;4963458;28;20128;-72
2024/03/04 09:07:21;;;;;;;39.92;21.88;;;;;;;9.50;100.00;99752.25;4975353;28;20043;-73
2024/03/04 09:09:53;;;;;;;40.03;21.10;;;;;;;9.51;100.00;99745.16;4977108;28;20046;-73
2024/03/04 09:12:21;;;;;;;38.88;20.95;;;;;;;9.63;100.00;99741.00;4976388;28;20074;-74
2024/03/04 09:14:51;;;;;;;37.67;20.83;;;;;;;9.85;100.00;99762.75;4979068;28;20053;-73
2024/03/04 09:17:22;;;;;;;37.72;20.77;;;;;;;9.95;100.00;99765.72;4972909;28;20110;-72
2024/03/04 09:19:50;;;;;;;37.67;20.05;;;;;;;9.96;100.00;99756.84;4984686;28;20051;-75
2024/03/04 09:22:20;;;;;;;36.50;20.15;;;;;;;10.11;100.00;99761.31;5011199;28;20054;-70
2024/03/04 09:24:49;;;;;;;37.33;19.77;;;;;;;10.18;100.00;99766.22;5009934;28;20057;-72
2024/03/04 09:27:18;;;;;;;33.83;19.40;;;;;;;10.26;100.00;99764.94;4976228;28;20057;-71
2024/03/04 09:29:46;;;;;;;33.97;19.65;;;;;;;10.33;100.00;99764.50;4969067;28;20057;-71
2024/03/04 09:32:15;;;;;;;39.17;21.45;;;;;;;10.31;100.00;99757.59;4972726;28;20047;-73
2024/03/04 09:34:44;;;;;;;34.22;20.08;;;;;;;10.17;100.00;99748.59;4974647;28;20135;-73
2024/03/04 09:37:14;;;;;;;39.83;20.65;;;;;;;10.20;100.00;99760.84;4978270;28;20059;-72
2024/03/04 09:39:42;;;;;;;36.20;20.75;;;;;;;10.11;100.00;99754.22;4961647;28;20070;-73
2024/03/04 09:42:13;;;;;;;34.40;19.75;;;;;;;10.13;100.00;99762.94;4954155;28;20098;-71
2024/03/04 09:44:43;;;;;;;34.03;19.00;;;;;;;10.23;100.00;99762.47;4973040;28;20031;-71
2024/03/04 09:47:12;;;;;;;35.77;20.00;;;;;;;10.38;100.00;99774.84;4954106;28;20110;-71
2024/03/04 09:49:40;;;;;;;34.05;19.23;;;;;;;10.43;100.00;99763.03;4945139;28;20447;-72
2024/03/04 09:52:12;;;;;;;36.83;19.92;;;;;;;10.44;100.00;99770.06;4946094;28;20129;-74
2024/03/04 09:54:41;;;;;;;34.70;20.70;;;;;;;10.45;100.00;99784.13;4952238;28;20130;-73
2024/03/04 09:57:09;;;;;;;35.37;20.07;;;;;;;10.40;100.00;99775.59;4930899;28;20047;-73
2024/03/04 09:59:37;;;;;;;38.75;21.73;;;;;;;10.37;100.00;99776.66;4957176;28;20541;-72
2024/03/04 10:02:10;;;;;;;34.63;20.17;;;;;;;10.32;100.00;99780.47;4950828;28;20671;-72
2024/03/04 10:04:41;;;;;;;38.88;21.27;;;;;;;10.28;100.00;99784.22;4963570;28;20047;-72
2024/03/04 10:07:09;;;;;;;35.80;20.27;;;;;;;10.21;100.00;99772.28;4948143;28;20113;-71
2024/03/04 10:09:38;;;;;;;40.67;21.35;;;;;;;10.18;100.00;99771.50;4945606;28;20057;-72
2024/03/04 10:12:08;;;;;;;39.55;21.55;;;;;;;10.19;100.00;99783.81;4948061;28;20051;-71
2024/03/04 10:15:14;;;;;;;36.93;20.80;;;;;;;10.23;100.00;99796.88;4949072;28;20114;-72
2024/03/04 10:17:44;;;;;;;39.08;21.27;;;;;;;10.29;100.00;99804.47;4944943;28;20978;-72
2024/03/04 10:20:13;;;;;;;37.90;21.42;;;;;;;10.35;100.00;99801.47;4939978;28;20542;-72
2024/03/04 10:22:42;;;;;;;40.58;21.73;;;;;;;10.40;100.00;99804.72;4962332;28;20051;-71
2024/03/04 10:25:13;;;;;;;41.03;21.73;;;;;;;10.44;100.00;99803.59;4951643;28;20035;-73
2024/03/04 10:27:43;;;;;;;40.05;21.60;;;;;;;10.46;100.00;99801.72;4970451;28;20051;-71
2024/03/04 10:30:16;;;;;;;37.97;21.88;;;;;;;10.42;100.00;99808.13;4973047;28;20039;-71
2024/03/04 10:32:54;;;;;;;46.90;24.67;;;;;;;10.36;100.00;99806.69;4969316;28;20051;-71
2024/03/04 10:35:26;;;;;;;41.78;23.23;;;;;;;10.36;100.00;99806.69;4963056;28;20114;-74
2024/03/04 10:37:57;;;;;;;;;;;;;;;10.35;100.00;99804.13;4951743;28;20506;-73
2024/03/04 10:40:26;;;;;;;42.05;22.52;;;;;;;10.36;100.00;99800.53;4967000;28;19938;-71
2024/03/04 10:42:59;;;;;;;43.80;24.27;;;;;;;9.95;100.00;99737.50;4951025;28;20614;-73
2024/03/04 10:45:30;;;;;;;44.55;24.88;;;;;;;10.36;100.00;99800.53;4948312;28;21633;-71
2024/03/04 10:48:01;;;;;;;46.08;24.70;;;;;;;10.45;100.00;99803.53;4943989;28;20087;-74
2024/03/04 10:50:31;;;;;;;45.90;25.38;;;;;;;10.33;100.00;99787.47;4946967;28;20059;-74
2024/03/04 10:52:59;;;;;;;46.45;25.48;;;;;;;10.44;100.00;99808.91;4950515;28;20051;-72
2024/03/04 10:55:33;;;;;;;47.15;25.50;;;;;;;10.43;100.00;99810.69;4973487;28;20031;-70
2024/03/04 10:58:04;;;;;;;46.70;24.23;;;;;;;10.51;100.00;99799.69;4968085;28;20039;-74
2024/03/04 11:00:33;;;;;;;;;;;;;;;10.59;100.00;99808.03;4945386;28;20043;-72
2024/03/04 11:03:12;;;;;;;43.33;23.90;;;;;;;10.61;100.00;99798.22;4990134;28;19941;-71
2024/03/04 11:05:43;;;;;;;42.70;22.88;;;;;;;10.61;100.00;99800.88;4965987;28;20055;-75
2024/03/04 11:08:15;;;;;;;42.05;23.23;;;;;;;10.50;100.00;99779.44;4952963;28;20507;-77
2024/03/04 11:10:48;;;;;;;45.13;24.05;;;;;;;10.53;100.00;99782.78;4964323;28;20500;-73
2024/03/04 11:13:21;;;;;;;43.75;24.00;;;;;;;10.60;100.00;99793.00;4941327;28;20055;-72
2024/03/04 11:15:59;;;;;;;43.15;22.90;;;;;;;10.61;100.00;99795.56;4964321;28;20061;-74
2024/03/04 11:18:48;;;;;;;42.47;22.92;;;;;;;10.55;100.00;99790.63;4928304;28;20055;-72
2024/03/04 11:21:17;;;;;;;45.03;23.23;;;;;;;10.71;100.00;99794.09;4944338;28;20432;-72
2024/03/04 11:23:45;;;;;;;41.60;23.05;;;;;;;10.79;100.00;99796.31;4947282;28;20050;-71
2024/03/04 11:26:14;;;;;;;38.78;21.85;;;;;;;10.77;100.00;99777.88;4957454;28;20062;-72
2024/03/04 11:28:46;;;;;;;44.88;22.33;;;;;;;10.87;100.00;99791.44;4943704;28;20627;-72